Time;durP1;ratioP1;P1;durP2;ratioP2;P2;SDS_P1;SDS_P2;PMS_P1;PMS_P2;Temp;Humidity;BMP_temperature;BMP_pressure;BME280_temperature;BME280_humidity;BME280_pressure;Samples;Min_cycle;Max_cycle;Signal;HPM_P1;HPM_P2
2022/01/04 00:02:23;;;;;;;;;4.67;4.67;;;;;12.07;90.87;99861.78;5080111;28;45317;-73
2022/01/04 00:04:48;;;;;;;;;1.67;1.33;;;;;11.94;91.11;99838.59;5080962;27;45478;-74
2022/01/04 00:07:13;;;;;;;;;2.00;2.00;;;;;11.91;91.09;99831.03;5080849;27;46161;-74
2022/01/04 00:09:43;;;;;;;;;2.33;2.33;;;;;11.98;91.22;99845.94;5079925;28;45300;-74
2022/01/04 00:14:55;;;;;;;;;3.00;2.00;;;;;11.95;91.13;99814.44;5080782;28;45420;-74
2022/01/04 00:17:21;;;;;;;;;2.67;2.33;;;;;12.02;91.17;99824.22;5080787;27;46100;-74
2022/01/04 00:19:46;;;;;;;;;2.67;2.33;;;;;12.00;91.38;99819.94;5081240;27;45302;-74
2022/01/04 00:22:12;;;;;;;;;0.67;0.67;;;;;11.93;91.21;99807.66;5079562;28;45519;-74
2022/01/04 00:24:37;;;;;;;;;3.00;3.00;;;;;11.91;90.98;99794.53;5080964;27;45244;-74
2022/01/04 00:27:03;;;;;;;;;3.33;2.33;;;;;11.95;91.25;99787.81;5079294;28;46135;-74
2022/01/04 00:29:28;;;;;;;;;3.00;1.67;;;;;11.89;90.99;99770.00;5080626;27;45248;-74
2022/01/04 00:31:54;;;;;;;;;2.33;0.67;;;;;11.92;91.34;99779.41;5080979;27;45290;-74
2022/01/04 00:34:19;;;;;;;;;1.33;1.33;;;;;11.90;91.37;99760.97;5079235;28;46283;-74
2022/01/04 00:36:44;;;;;;;;;3.00;1.67;;;;;11.89;91.50;99748.69;5083112;27;46012;-74
2022/01/04 00:39:10;;;;;;;;;3.33;2.33;;;;;11.89;91.45;99751.34;5101201;27;45175;-74
2022/01/04 00:41:35;;;;;;;;;0.00;0.00;;;;;11.96;91.59;99761.97;5101289;27;45379;-74
2022/01/04 00:44:01;;;;;;;;;0.33;0.33;;;;;11.96;91.51;99752.16;5100988;27;45289;-74
2022/01/04 00:46:26;;;;;;;;;0.00;0.00;;;;;11.92;91.98;99734.97;5100973;27;46272;-74
2022/01/04 00:49:10;;;;;;;;;1.00;0.00;;;;;11.94;91.40;99737.41;5099691;27;45369;-74
2022/01/04 00:51:49;;;;;;;;;0.67;0.67;;;;;11.93;91.71;99714.47;5099647;27;45255;-74
2022/01/04 00:54:16;;;;;;;;;0.33;0.33;;;;;11.94;91.35;99703.59;5099348;27;45362;-74
2022/01/04 00:56:42;;;;;;;;;0.67;0.00;;;;;11.98;91.71;99715.47;5100200;27;46078;-74
2022/01/04 00:59:07;;;;;;;;;0.00;0.00;;;;;11.89;91.57;99686.63;5100801;27;45306;-74
2022/01/04 01:01:33;;;;;;;;;0.00;0.00;;;;;11.93;91.92;99699.31;5099706;27;45557;-74
2022/01/04 01:03:59;;;;;;;;;0.67;0.67;;;;;11.99;91.81;99693.16;5100888;27;45311;-73
2022/01/04 01:06:24;;;;;;;;;0.00;0.00;;;;;11.90;91.59;99673.09;5100079;27;46246;-74
2022/01/04 01:08:51;;;;;;;;;0.67;0.33;;;;;11.95;91.52;99673.31;5100765;27;45237;-74
2022/01/04 01:11:17;;;;;;;;;0.33;0.33;;;;;11.92;91.63;99668.41;5100812;27;45313;-74
2022/01/04 01:13:43;;;;;;;;;0.33;0.33;;;;;11.92;91.60;99663.06;5100600;27;45541;-74
2022/01/04 01:16:09;;;;;;;;;0.33;0.33;;;;;11.93;91.43;99653.22;5099176;27;47108;-74
2022/01/04 01:18:35;;;;;;;;;0.33;0.33;;;;;11.95;91.57;99646.69;5099284;27;45355;-73
2022/01/04 01:21:03;;;;;;;;;0.00;0.00;;;;;12.00;91.45;99657.50;5099206;27;45261;-73
2022/01/04 01:23:28;;;;;;;;;0.33;0.33;;;;;12.02;91.73;99645.81;5100516;27;45207;-74
2022/01/04 01:25:54;;;;;;;;;0.00;0.00;;;;;12.02;91.31;99640.50;5100137;27;45432;-73
2022/01/04 01:28:19;;;;;;;;;0.00;0.00;;;;;11.87;91.31;99614.94;5099126;27;45242;-73
2022/01/04 01:30:45;;;;;;;;;1.00;1.00;;;;;12.00;91.68;99644.19;5100692;27;45188;-73
2022/01/04 01:33:11;;;;;;;;;0.00;0.00;;;;;11.95;91.49;99625.38;5099085;27;46137;-73
2022/01/04 01:35:38;;;;;;;;;0.33;0.33;;;;;12.01;91.50;99631.69;5098718;27;47164;-73
2022/01/04 01:38:05;;;;;;;;;0.00;0.00;;;;;12.01;91.71;99621.06;5086175;27;45326;-73
2022/01/04 01:40:31;;;;;;;;;0.33;0.33;;;;;11.97;91.39;99617.16;5080078;27;45313;-74
2022/01/04 01:42:57;;;;;;;;;0.00;0.00;;;;;11.94;91.29;99602.41;5078548;28;46508;-73
2022/01/04 01:45:23;;;;;;;;;0.33;0.33;;;;;11.93;91.34;99594.66;5079433;27;46142;-73
2022/01/04 01:47:49;;;;;;;;;0.33;0.33;;;;;11.99;91.71;99609.78;5079804;27;45227;-73
2022/01/04 01:50:16;;;;;;;;;0.00;0.00;;;;;12.01;93.37;99605.06;5079961;27;45163;-73
2022/01/04 01:52:44;;;;;;;;;0.00;0.00;;;;;11.97;95.86;99602.00;5079575;27;45170;-74
2022/01/04 01:55:12;;;;;;;;;0.00;0.00;;;;;11.87;96.37;99570.50;5078076;28;46415;-74
2022/01/04 01:57:37;;;;;;;;;0.00;0.00;;;;;11.93;96.32;99576.84;5078413;28;45186;-73
2022/01/04 02:00:06;;;;;;;;;0.00;0.00;;;;;11.98;97.03;99579.66;5079633;27;45262;-73
2022/01/04 02:02:32;;;;;;;;;0.00;0.00;;;;;11.63;97.47;99524.13;5079531;27;45314;-73
2022/01/04 02:04:58;;;;;;;;;0.00;0.00;;;;;11.99;97.54;99567.19;5079539;27;46587;-74
2022/01/04 02:07:24;;;;;;;;;0.33;0.33;;;;;12.01;97.41;99557.13;5079196;27;45290;-73
2022/01/04 02:10:02;;;;;;;;;0.33;0.33;;;;;12.05;97.11;99560.19;5083119;27;45337;-73
2022/01/04 02:12:31;;;;;;;;;0.00;0.00;;;;;12.03;97.26;99547.06;5083104;27;45321;-73
2022/01/04 02:14:56;;;;;;;;;0.00;0.00;;;;;12.05;97.21;99560.19;5082835;27;45377;-73
2022/01/04 02:17:22;;;;;;;;;0.33;0.33;;;;;12.10;97.33;99550.53;5081614;28;45540;-73
2022/01/04 02:19:47;;;;;;;;;0.00;0.00;;;;;12.03;95.93;99538.28;5083061;27;45325;-73
2022/01/04 02:22:13;;;;;;;;;2.33;1.33;;;;;12.09;96.20;99548.13;5082721;27;45240;-73
2022/01/04 02:24:38;;;;;;;;;0.67;0.33;;;;;11.99;96.19;99528.06;5082807;27;46283;-73
2022/01/04 02:27:04;;;;;;;;;0.00;0.00;;;;;12.08;95.99;99536.66;5082550;27;45396;-73
2022/01/04 02:29:29;;;;;;;;;0.33;0.33;;;;;12.08;96.16;99531.31;5081664;28;45851;-73
2022/01/04 02:31:55;;;;;;;;;0.00;0.00;;;;;12.09;96.12;99522.28;5082771;27;45372;-73
2022/01/04 02:34:20;;;;;;;;;0.00;0.00;;;;;12.09;96.39;99514.28;5082572;27;46996;-74
2022/01/04 02:36:46;;;;;;;;;0.00;0.00;;;;;12.10;95.85;99513.25;5085300;27;45311;-73
2022/01/04 02:39:11;;;;;;;;;0.33;0.33;;;;;12.07;95.60;99510.22;5103416;27;45294;-73
2022/01/04 02:41:37;;;;;;;;;0.00;0.00;;;;;12.09;95.73;99498.31;5101738;27;46248;-73
2022/01/04 02:44:02;;;;;;;;;0.33;0.33;;;;;12.02;95.72;99486.03;5102847;27;46101;-74
2022/01/04 02:46:28;;;;;;;;;1.33;0.33;;;;;12.04;95.67;99484.81;5101808;27;45312;-73
2022/01/04 02:48:53;;;;;;;;;1.00;1.00;;;;;12.11;95.14;99485.63;5103050;27;45178;-74
2022/01/04 02:51:18;;;;;;;;;0.00;0.00;;;;;12.06;94.84;99460.63;5102923;27;45510;-73
2022/01/04 02:53:45;;;;;;;;;0.00;0.00;;;;;12.07;94.49;99463.13;5101572;27;47157;-74
2022/01/04 02:56:14;;;;;;;;;0.00;0.00;;;;;12.08;94.41;99456.75;5102866;27;45216;-73
2022/01/04 02:58:40;;;;;;;;;1.00;1.00;;;;;12.05;94.03;99459.81;5102507;27;45346;-73
2022/01/04 03:01:05;;;;;;;;;2.00;2.00;;;;;12.03;93.93;99445.88;5102730;27;45316;-73
2022/01/04 03:03:31;;;;;;;;;2.00;1.00;;;;;12.14;93.87;99446.25;5102699;27;45319;-73
2022/01/04 03:05:56;;;;;;;;;0.00;0.00;;;;;12.03;93.85;99432.56;5083845;27;45336;-73
2022/01/04 03:08:22;;;;;;;;;1.33;1.33;;;;;12.08;93.77;99424.78;5102661;27;45231;-73
2022/01/04 03:10:48;;;;;;;;;1.00;1.00;;;;;12.05;93.44;99409.22;5101124;27;46113;-73
2022/01/04 03:13:16;;;;;;;;;1.00;1.00;;;;;12.12;93.79;99427.81;5102442;27;45304;-73
2022/01/04 03:15:41;;;;;;;;;1.33;1.33;;;;;12.08;93.91;99421.31;5101294;27;45760;-73
2022/01/04 03:18:07;;;;;;;;;1.67;1.67;;;;;12.04;93.42;99414.75;5102528;27;45368;-73
2022/01/04 03:20:32;;;;;;;;;1.00;1.00;;;;;12.14;93.40;99422.28;5101871;27;45286;-73
2022/01/04 03:22:58;;;;;;;;;2.00;2.00;;;;;12.11;93.39;99404.88;5101045;27;48326;-73
2022/01/04 03:25:23;;;;;;;;;5.33;4.00;;;;;12.10;93.64;99403.28;5102013;27;45283;-73
2022/01/04 03:27:48;;;;;;;;;2.33;1.33;;;;;12.09;93.18;99396.31;5101095;27;45352;-73
2022/01/04 03:30:14;;;;;;;;;1.00;1.00;;;;;12.07;92.84;99399.19;5102156;27;45367;-73
2022/01/04 03:32:40;;;;;;;;;2.33;2.33;;;;;12.05;92.69;99395.91;5102187;27;46544;-73
2022/01/04 03:35:06;;;;;;;;;3.00;3.00;;;;;12.10;92.86;99403.28;5100761;27;45794;-73
2022/01/04 03:37:31;;;;;;;;;1.00;1.00;;;;;12.12;92.59;99398.53;5092630;27;45316;-73
2022/01/04 03:39:56;;;;;;;;;2.33;2.33;;;;;12.11;92.34;99383.59;5081667;27;45240;-73
2022/01/04 03:42:22;;;;;;;;;2.50;2.50;;;;;12.15;91.87;99381.31;5081526;27;46053;-73
2022/01/04 03:44:47;;;;;;;;;0.67;0.33;;;;;12.11;92.08;99373.75;5080208;28;45936;-73
2022/01/04 03:47:13;;;;;;;;;0.00;0.00;;;;;12.13;91.34;99378.88;5081873;27;45269;-73
2022/01/04 03:49:39;;;;;;;;;0.00;0.00;;;;;12.19;91.64;99374.50;5080182;28;46341;-73
2022/01/04 03:52:04;;;;;;;;;0.00;0.00;;;;;12.16;91.54;99369.63;5081239;27;45995;-73
2022/01/04 03:54:30;;;;;;;;;0.00;0.00;;;;;11.99;90.62;99362.16;5081507;27;45255;-73
2022/01/04 03:56:55;;;;;;;;;0.00;0.00;;;;;11.92;90.26;99361.38;5081602;28;45222;-73
2022/01/04 03:59:21;;;;;;;;;0.00;0.00;;;;;11.90;90.18;99374.09;5080034;28;46365;-73
2022/01/04 04:01:47;;;;;;;;;0.00;0.00;;;;;11.72;90.22;99354.38;5081343;27;45996;-73
2022/01/04 04:04:13;;;;;;;;;0.00;0.00;;;;;11.65;89.90;99351.75;5081232;27;45294;-73
2022/01/04 04:06:40;;;;;;;;;0.00;0.00;;;;;11.66;89.82;99364.03;5081130;27;45349;-73
2022/01/04 04:09:06;;;;;;;;;0.00;0.00;;;;;11.56;90.18;99347.72;5079874;28;45493;-73
2022/01/04 04:11:31;;;;;;;;;0.00;0.00;;;;;11.44;90.17;99348.38;5079687;28;46161;-73
2022/01/04 04:13:56;;;;;;;;;0.00;0.00;;;;;11.38;89.79;99337.81;5081014;27;45363;-73
2022/01/04 04:16:22;;;;;;;;;0.00;0.00;;;;;11.38;89.70;99343.13;5081388;27;45301;-73
2022/01/04 04:18:47;;;;;;;;;0.00;0.00;;;;;11.31;90.02;99346.63;5081044;27;45214;-73
2022/01/04 04:21:13;;;;;;;;;0.00;0.00;;;;;11.29;90.09;99356.69;5080819;27;45881;-73
2022/01/04 04:23:38;;;;;;;;;0.00;0.00;;;;;11.26;90.07;99357.13;5081017;27;45216;-73
2022/01/04 04:26:05;;;;;;;;;0.00;0.00;;;;;11.11;89.42;99344.88;5080896;27;45382;-73
2022/01/04 04:28:31;;;;;;;;;0.00;0.00;;;;;11.07;89.76;99340.22;5080788;27;45498;-73
2022/01/04 04:30:56;;;;;;;;;0.00;0.00;;;;;11.02;89.50;99345.34;5079742;27;46280;-73
2022/01/04 04:33:22;;;;;;;;;0.00;0.00;;;;;10.98;89.59;99352.94;5080827;27;45369;-73
2022/01/04 04:35:48;;;;;;;;;0.00;0.00;;;;;10.94;89.72;99351.72;5080853;28;45338;-73
2022/01/04 04:38:13;;;;;;;;;0.00;0.00;;;;;10.88;89.19;99347.25;5111492;27;45372;-73
2022/01/04 04:40:38;;;;;;;;;0.00;0.00;;;;;10.81;88.90;99357.91;5101303;27;45336;-73
2022/01/04 04:43:05;;;;;;;;;0.00;0.00;;;;;10.67;89.01;99352.63;5101198;27;45232;-73
2022/01/04 04:45:31;;;;;;;;;0.00;0.00;;;;;10.59;89.10;99352.84;5101226;27;45404;-73
2022/01/04 04:47:56;;;;;;;;;0.00;0.00;;;;;10.51;88.96;99361.06;5100874;27;45438;-72
2022/01/04 04:50:21;;;;;;;;;0.00;0.00;;;;;10.45;89.25;99358.19;5116875;27;47757;-73
2022/01/04 04:52:47;;;;;;;;;0.00;0.00;;;;;10.30;89.54;99337.16;5100817;27;45247;-73
2022/01/04 04:55:13;;;;;;;;;0.00;0.00;;;;;10.38;89.75;99360.00;5101153;27;45256;-73
2022/01/04 04:57:39;;;;;;;;;0.00;0.00;;;;;10.35;89.35;99373.72;5100816;27;45182;-73
2022/01/04 05:00:06;;;;;;;;;0.00;0.00;;;;;10.35;89.49;99371.06;5099470;27;48263;-73
2022/01/04 05:02:31;;;;;;;;;0.00;0.00;;;;;10.23;88.85;99361.06;5099621;27;45235;-73
2022/01/04 05:04:57;;;;;;;;;0.00;0.00;;;;;10.25;89.32;99387.41;5100869;27;45303;-73
2022/01/04 05:07:22;;;;;;;;;0.00;0.00;;;;;10.14;89.68;99375.56;5100478;27;45254;-73
2022/01/04 05:09:48;;;;;;;;;0.00;0.00;;;;;10.17;89.18;99376.97;5100733;27;45327;-73
2022/01/04 05:12:13;;;;;;;;;0.00;0.00;;;;;10.14;89.30;99378.22;5100754;27;45307;-73
2022/01/04 05:14:44;;;;;;;;;0.00;0.00;;;;;10.07;89.52;99354.34;5100656;27;45322;-73
2022/01/04 05:17:10;;;;;;;;;0.00;0.00;;;;;9.99;89.05;99370.47;5099317;27;46378;-72
2022/01/04 05:19:35;;;;;;;;;0.00;0.00;;;;;9.94;89.07;99410.09;5100569;27;45259;-72
2022/01/04 05:22:01;;;;;;;;;0.00;0.00;;;;;9.75;89.03;99407.19;5100426;27;45257;-71
2022/01/04 05:24:26;;;;;;;;;0.00;0.00;;;;;9.44;89.37;99361.63;5100785;27;45252;-72
2022/01/04 05:26:52;;;;;;;;;0.00;0.00;;;;;9.65;89.93;99396.16;5100132;27;45560;-72
2022/01/04 05:29:17;;;;;;;;;0.00;0.00;;;;;9.75;89.79;99409.03;5100452;27;46128;-72
2022/01/04 05:31:42;;;;;;;;;0.00;0.00;;;;;9.67;89.67;99386.16;5099165;27;45337;-72
2022/01/04 05:34:08;;;;;;;;;0.00;0.00;;;;;9.68;89.75;99390.44;5100581;27;45421;-72
2022/01/04 05:36:33;;;;;;;;;0.00;0.00;;;;;9.69;89.67;99403.50;5099077;27;45591;-72
2022/01/04 05:39:00;;;;;;;;;0.00;0.00;;;;;9.70;89.70;99421.06;5079892;27;45341;-72
2022/01/04 05:41:26;;;;;;;;;0.00;0.00;;;;;9.62;89.86;99409.81;5078755;28;45295;-72
2022/01/04 05:43:51;;;;;;;;;0.00;0.00;;;;;9.60;90.08;99391.44;5083388;28;45318;-72
2022/01/04 05:46:16;;;;;;;;;0.00;0.00;;;;;9.62;90.19;99385.94;5083401;27;45363;-72
2022/01/04 05:48:42;;;;;;;;;0.00;0.00;;;;;9.65;90.06;99390.84;5083700;27;46248;-72
2022/01/04 05:51:07;;;;;;;;;0.00;0.00;;;;;9.72;90.03;99397.81;5083219;27;45258;-72
2022/01/04 05:53:33;;;;;;;;;0.00;0.00;;;;;9.64;90.00;99384.72;5083601;27;45301;-72
2022/01/04 05:55:58;;;;;;;;;0.00;0.00;;;;;9.73;89.81;99398.63;5082029;28;46954;-72
2022/01/04 05:58:24;;;;;;;;;0.00;0.00;;;;;9.66;89.80;99397.78;5083163;27;45555;-72
2022/01/04 06:00:49;;;;;;;;;0.00;0.00;;;;;9.69;89.71;99400.84;5083287;27;45251;-72
2022/01/04 06:03:15;;;;;;;;;0.00;0.00;;;;;9.58;90.21;99391.63;5083391;27;45238;-72
2022/01/04 06:05:40;;;;;;;;;0.00;0.00;;;;;9.74;90.02;99408.22;5082785;27;45379;-72
2022/01/04 06:08:05;;;;;;;;;0.00;0.00;;;;;9.67;89.81;99397.56;5074587;27;45251;-72
2022/01/04 06:10:37;;;;;;;;;0.00;0.00;;;;;9.72;89.70;99405.75;5070474;28;45468;-73
2022/01/04 06:15:28;;;;;;;;;0.00;0.00;;;;;9.72;89.62;99410.25;5082643;27;45220;-73
2022/01/04 06:17:54;;;;;;;;;0.00;0.00;;;;;9.71;89.73;99413.91;5082965;27;45318;-75
2022/01/04 06:20:21;;;;;;;;;0.00;0.00;;;;;9.75;90.05;99424.97;5083079;27;45269;-73
2022/01/04 06:22:48;;;;;;;;;0.00;0.00;;;;;9.72;89.65;99421.69;5081794;28;45402;-74
2022/01/04 06:25:16;;;;;;;;;0.00;0.00;;;;;9.70;89.67;99396.38;5082639;27;45422;-74
2022/01/04 06:27:43;;;;;;;;;0.00;0.00;;;;;9.77;89.67;99412.28;5082646;27;45763;-74
2022/01/04 06:30:09;;;;;;;;;0.00;0.00;;;;;9.78;89.42;99406.78;5081325;28;46114;-74
2022/01/04 06:32:36;;;;;;;;;0.00;0.00;;;;;9.80;89.45;99414.53;5082893;27;45282;-74
2022/01/04 06:35:01;;;;;;;;;0.00;0.00;;;;;9.72;89.22;99412.88;5082644;28;45460;-74
2022/01/04 06:37:27;;;;;;;;;0.00;0.00;;;;;9.79;89.45;99416.38;5090989;27;46297;-74
2022/01/04 06:39:52;;;;;;;;;0.00;0.00;;;;;9.83;89.37;99432.72;5101766;27;45338;-74
2022/01/04 06:42:17;;;;;;;;;0.00;0.00;;;;;9.77;88.99;99438.81;5103303;27;45258;-73
2022/01/04 06:44:43;;;;;;;;;2.00;2.00;;;;;9.81;89.08;99434.75;5102982;27;45396;-74
2022/01/04 06:47:10;;;;;;;;;0.00;0.00;;;;;9.84;89.20;99444.97;5103030;27;46395;-75
2022/01/04 06:49:36;;;;;;;;;0.00;0.00;;;;;9.83;89.20;99452.13;5103001;27;45362;-74
2022/01/04 06:52:03;;;;;;;;;0.00;0.00;;;;;9.62;88.62;99423.06;5102773;27;45275;-74
2022/01/04 06:54:28;;;;;;;;;1.00;1.00;;;;;9.71;89.09;99443.94;5102121;27;45164;-74
2022/01/04 06:56:54;;;;;;;;;2.00;2.00;;;;;9.73;89.30;99464.97;5083784;27;45191;-73
2022/01/04 06:59:19;;;;;;;;;1.67;1.00;;;;;9.64;89.67;99448.38;5085766;27;45280;-74
2022/01/04 07:01:45;;;;;;;;;1.00;1.00;;;;;9.79;89.11;99463.34;5069784;28;45362;-74
2022/01/04 07:04:11;;;;;;;;;1.00;1.00;;;;;9.74;89.22;99461.28;5074013;27;45449;-77
2022/01/04 07:06:36;;;;;;;;;1.00;1.00;;;;;9.69;89.20;99463.69;5080931;27;45283;-77
2022/01/04 07:09:04;;;;;;;;;0.00;0.00;;;;;9.80;89.17;99486.19;5071329;27;45198;-78
2022/01/04 07:11:29;;;;;;;;;0.33;0.33;;;;;9.69;89.62;99467.19;5078386;27;45377;-78
2022/01/04 07:13:54;;;;;;;;;1.67;0.67;;;;;9.71;89.51;99472.28;5060223;28;46342;-78
2022/01/04 07:16:20;;;;;;;;;1.00;1.00;;;;;9.69;89.59;99476.97;5061693;28;45995;-77
2022/01/04 07:18:48;;;;;;;;;2.00;1.00;;;;;9.79;89.37;99489.88;5061787;28;45338;-78
2022/01/04 07:21:14;;;;;;;;;1.00;1.00;;;;;9.80;89.07;99492.31;5061573;28;45284;-77
2022/01/04 07:23:40;;;;;;;;;2.00;2.00;;;;;9.75;88.94;99497.41;5061535;28;45463;-78
2022/01/04 07:26:05;;;;;;;;;1.00;1.00;;;;;9.62;88.96;99474.31;5063382;28;46049;-78
2022/01/04 07:28:31;;;;;;;;;2.00;2.00;;;;;9.68;88.90;99486.78;5061359;28;45252;-78
2022/01/04 07:30:57;;;;;;;;;2.33;2.33;;;;;9.65;89.07;99487.19;5061697;28;45192;-78
2022/01/04 07:33:22;;;;;;;;;3.00;3.00;;;;;9.59;89.07;99478.19;5061384;28;45273;-77
2022/01/04 07:35:48;;;;;;;;;3.00;3.00;;;;;9.61;88.94;99491.25;5061154;28;45596;-77
2022/01/04 07:38:13;;;;;;;;;4.00;4.00;;;;;9.55;88.80;99495.50;5091371;27;45290;-77
2022/01/04 07:40:39;;;;;;;;;4.00;4.00;;;;;9.64;89.04;99503.28;5102271;27;45242;-77
2022/01/04 07:43:05;;;;;;;;;4.33;4.33;;;;;9.66;89.06;99517.97;5099159;27;45376;-77
2022/01/04 07:45:32;;;;;;;;;4.67;4.67;;;;;9.56;88.82;99499.81;5063522;28;45647;-78
2022/01/04 07:47:58;;;;;;;;;7.33;4.33;;;;;9.57;88.95;99505.91;5069267;28;45403;-78
2022/01/04 07:50:24;;;;;;;;;7.00;7.00;;;;;9.37;88.85;99497.88;5070534;27;45389;-78
2022/01/04 07:52:50;;;;;;;;;8.67;7.33;;;;;9.54;89.61;99528.34;5081164;27;45314;-78
2022/01/04 07:55:15;;;;;;;;;8.67;8.67;;;;;9.54;89.26;99532.81;5076380;28;48195;-78
2022/01/04 07:57:42;;;;;;;;;10.00;8.33;;;;;9.43;89.14;99523.59;5068238;28;45417;-77
2022/01/04 08:00:09;;;;;;;;;12.00;11.00;;;;;9.49;89.14;99535.25;5071616;27;45421;-78
2022/01/04 08:02:34;;;;;;;;;12.67;11.00;;;;;9.41;89.38;99528.28;5067623;28;46115;-78
2022/01/04 08:04:59;;;;;;;;;12.33;12.33;;;;;9.44;89.33;99536.69;5066715;28;46164;-78
2022/01/04 08:07:25;;;;;;;;;12.33;12.33;;;;;9.46;89.18;99542.59;5084939;27;45290;-77
2022/01/04 08:09:52;;;;;;;;;12.67;12.33;;;;;9.40;89.39;99540.72;5069639;28;45390;-77
2022/01/04 08:12:18;;;;;;;;;14.67;14.00;;;;;9.53;89.13;99581.59;5067587;27;45460;-78
2022/01/04 08:14:44;;;;;;;;;12.67;12.33;;;;;9.45;89.16;99578.09;5060684;28;45283;-78
2022/01/04 08:17:10;;;;;;;;;9.67;9.67;;;;;9.43;88.89;99589.91;5060719;28;45361;-78
2022/01/04 08:19:36;;;;;;;;;15.00;13.33;;;;;9.29;89.10;99579.22;5060731;28;45173;-78
2022/01/04 08:22:02;;;;;;;;;15.00;12.00;;;;;9.36;89.23;99594.34;5076021;28;46401;-77
2022/01/04 08:24:27;;;;;;;;;11.00;11.00;;;;;9.38;89.30;99603.75;5075366;28;48423;-78
2022/01/04 08:26:52;;;;;;;;;11.67;10.00;;;;;9.29;89.26;99599.59;5078684;28;45271;-78
2022/01/04 08:29:17;;;;;;;;;16.00;13.67;;;;;9.30;89.30;99607.38;5080895;27;45296;-77
2022/01/04 08:31:43;;;;;;;;;13.33;13.33;;;;;9.24;89.44;99596.69;5080838;27;45314;-78
2022/01/04 08:34:08;;;;;;;;;11.33;10.33;;;;;9.26;89.20;99607.94;5080717;27;45298;-78
2022/01/04 08:36:36;;;;;;;;;16.67;13.00;;;;;9.24;89.13;99602.84;5081597;27;45396;-78
2022/01/04 08:39:02;;;;;;;;;14.67;11.67;;;;;9.29;89.72;99596.94;5101334;27;45354;-78
2022/01/04 08:41:27;;;;;;;;;13.67;12.33;;;;;9.32;89.44;99594.75;5099783;27;45394;-78
2022/01/04 08:43:52;;;;;;;;;14.00;14.00;;;;;9.34;89.38;99595.34;5099482;27;47163;-79
2022/01/04 08:46:18;;;;;;;;;15.33;15.33;;;;;9.36;89.10;99611.06;5100926;27;45303;-77
2022/01/04 08:48:43;;;;;;;;;18.33;16.00;;;;;9.44;89.39;99631.31;5088470;27;45355;-77
2022/01/04 08:51:08;;;;;;;;;14.67;14.33;;;;;9.50;89.78;99635.84;5060279;28;45439;-77
2022/01/04 08:53:34;;;;;;;;;12.00;10.67;;;;;9.46;89.65;99627.47;5060143;28;45270;-77
2022/01/04 08:56:01;;;;;;;;;14.33;12.00;;;;;9.55;89.17;99629.97;5060214;28;45272;-77
2022/01/04 08:58:30;;;;;;;;;12.00;11.00;;;;;9.64;89.07;99650.00;5075765;28;45225;-77
2022/01/04 09:00:55;;;;;;;;;11.33;11.33;;;;;9.50;89.11;99627.06;5060835;28;46218;-78
2022/01/04 09:03:21;;;;;;;;;11.33;10.00;;;;;9.64;89.21;99651.84;5072913;28;47382;-78
2022/01/04 09:05:46;;;;;;;;;12.33;11.33;;;;;9.56;89.19;99634.25;5070109;28;45334;-78
2022/01/04 09:08:12;;;;;;;;;15.67;13.67;;;;;9.61;89.12;99631.84;5066604;28;45466;-77
2022/01/04 09:10:37;;;;;;;;;13.33;10.33;;;;;9.65;89.13;99633.09;5070500;28;45244;-78
2022/01/04 09:13:20;;;;;;;;;14.33;12.00;;;;;9.68;89.01;99631.88;5079213;27;46145;-78
2022/01/04 09:18:43;;;;;;;;;11.00;11.00;;;;;9.77;89.07;99649.28;5080103;27;45429;-78
2022/01/04 09:18:46;;;;;;;;;10.33;10.33;;;;;9.64;88.82;99641.25;5079475;28;45593;-78
2022/01/04 09:21:24;;;;;;;;;10.00;10.00;;;;;9.69;88.52;99665.34;5078314;28;47173;-78
2022/01/04 09:23:50;;;;;;;;;16.33;16.00;;;;;9.65;88.73;99664.09;5069317;27;45341;-77
2022/01/04 09:26:17;;;;;;;;;14.00;14.00;;;;;9.56;88.64;99650.16;5067837;28;45451;-76
2022/01/04 09:28:45;;;;;;;;;15.00;14.67;;;;;9.70;88.88;99673.09;5068391;28;45421;-77
2022/01/04 09:31:11;;;;;;;;;12.67;12.00;;;;;9.75;88.93;99669.06;5059561;28;45443;-78
2022/01/04 09:33:37;;;;;;;;;10.33;10.33;;;;;9.63;88.72;99648.38;5075157;28;47374;-77
2022/01/04 09:36:04;;;;;;;;;12.33;12.33;;;;;9.73;88.80;99671.91;5059349;28;45338;-78
2022/01/04 09:38:29;;;;;;;;;10.00;10.00;;;;;9.71;88.64;99664.16;5095980;27;45413;-78
2022/01/04 09:40:55;;;;;;;;;12.67;10.67;;;;;9.63;88.74;99644.88;5100168;27;45564;-76
2022/01/04 09:43:21;;;;;;;;;10.33;9.33;;;;;9.73;88.71;99659.44;5100241;27;45311;-77
2022/01/04 09:45:47;;;;;;;;;8.67;8.67;;;;;9.67;88.46;99660.22;5100256;27;45639;-78
2022/01/04 09:48:14;;;;;;;;;11.33;10.67;;;;;9.69;88.98;99676.78;5100213;27;45356;-76
2022/01/04 09:50:41;;;;;;;;;11.67;9.33;;;;;9.78;88.66;99680.09;5099665;27;45465;-78
2022/01/04 09:53:09;;;;;;;;;10.33;10.33;;;;;9.67;88.93;99662.09;5098528;27;47381;-78
2022/01/04 09:55:38;;;;;;;;;11.67;10.00;;;;;9.78;88.68;99663.34;5087574;27;45651;-78
2022/01/04 09:58:03;;;;;;;;;7.33;7.33;;;;;9.88;88.79;99676.28;5058996;28;45230;-78
2022/01/04 10:00:29;;;;;;;;;10.00;9.00;;;;;9.83;88.69;99664.44;5066479;28;45249;-78
2022/01/04 10:03:10;;;;;;;;;14.00;12.00;;;;;9.91;88.22;99665.28;5079171;27;45361;-77
2022/01/04 10:05:36;;;;;;;;;11.00;11.00;;;;;9.91;88.49;99660.78;5074124;28;45397;-79
2022/01/04 10:08:05;;;;;;;;;14.00;12.00;;;;;9.93;88.23;99657.91;5058934;28;45483;-78
2022/01/04 10:10:31;;;;;;;;;8.33;8.33;;;;;9.89;88.03;99662.81;5067756;28;45442;-78
2022/01/04 10:13:00;;;;;;;;;11.00;10.00;;;;;9.95;87.95;99685.09;5065210;28;45393;-78
2022/01/04 10:15:28;;;;;;;;;9.00;9.00;;;;;9.96;88.10;99686.72;5058953;28;45339;-78
2022/01/04 10:17:57;;;;;;;;;9.00;9.00;;;;;9.91;88.38;99686.50;5059204;28;45301;-77
2022/01/04 10:20:23;;;;;;;;;12.00;10.00;;;;;9.95;87.77;99685.94;5057264;28;46547;-78
2022/01/04 10:22:50;;;;;;;;;8.00;8.00;;;;;9.98;87.53;99703.28;5074433;28;48252;-78
2022/01/04 10:25:19;;;;;;;;;9.67;9.00;;;;;9.88;88.14;99703.66;5058897;28;45386;-78
2022/01/04 10:27:50;;;;;;;;;13.67;10.33;;;;;9.70;88.23;99678.41;5059052;28;45428;-78
2022/01/04 10:30:33;;;;;;;;;14.00;11.33;;;;;10.02;88.03;99724.94;5060852;28;45461;-79
2022/01/04 10:33:03;;;;;;;;;11.33;10.67;;;;;9.96;88.23;99722.06;5062155;28;47487;-79
2022/01/04 10:35:41;;;;;;;;;14.67;14.00;;;;;9.93;88.20;99718.97;5062028;28;45225;-79
2022/01/04 10:38:16;;;;;;;;;9.33;9.33;;;;;9.88;88.38;99708.13;5076171;27;45487;-78
2022/01/04 10:40:48;;;;;;;;;9.67;9.67;;;;;9.88;88.21;99698.34;5082428;27;45183;-78
2022/01/04 10:43:23;;;;;;;;;11.00;11.00;;;;;9.90;88.62;99693.63;5082437;27;46296;-79
2022/01/04 10:45:49;;;;;;;;;11.67;10.00;;;;;10.02;88.29;99703.69;5082382;27;45417;-79
2022/01/04 10:48:22;;;;;;;;;16.67;15.33;;;;;9.98;88.80;99684.72;5081162;28;45454;-78
2022/01/04 10:50:51;;;;;;;;;14.33;14.33;;;;;9.98;88.17;99676.75;5080778;28;46939;-78
2022/01/04 10:53:19;;;;;;;;;15.00;15.00;;;;;10.12;88.51;99716.63;5080807;28;47438;-78
2022/01/04 10:55:47;;;;;;;;;10.67;10.00;;;;;10.10;88.02;99714.19;5080954;28;45337;-78
2022/01/04 10:58:24;;;;;;;;;12.00;10.67;;;;;10.06;87.92;99697.00;5082483;27;45258;-78
2022/01/04 11:00:52;;;;;;;;;10.00;10.00;;;;;10.12;88.65;99692.75;5082236;27;45314;-77
2022/01/04 11:03:26;;;;;;;;;10.33;10.00;;;;;10.22;88.40;99691.38;5081973;27;45410;-79
2022/01/04 11:05:54;;;;;;;;;11.00;11.00;;;;;10.13;88.37;99658.03;5080331;28;45294;-79
2022/01/04 11:08:19;;;;;;;;;9.67;9.67;;;;;10.18;88.22;99674.16;5082155;27;45258;-78
2022/01/04 11:10:45;;;;;;;;;8.33;8.33;;;;;10.12;87.95;99672.31;5082069;27;45352;-78
2022/01/04 11:13:11;;;;;;;;;11.33;11.33;;;;;10.14;88.18;99672.94;5082006;27;45817;-79
2022/01/04 11:15:37;;;;;;;;;14.00;14.00;;;;;10.14;88.21;99667.63;5081924;27;45354;-79
2022/01/04 11:18:02;;;;;;;;;11.00;10.00;;;;;10.18;88.15;99657.44;5082185;27;45308;-79
2022/01/04 11:20:28;;;;;;;;;11.00;10.33;;;;;10.28;87.70;99670.34;5081721;28;45479;-79
2022/01/04 11:22:56;;;;;;;;;8.00;8.00;;;;;10.22;87.38;99670.13;5080488;28;46929;-78
2022/01/04 11:25:23;;;;;;;;;9.00;9.00;;;;;10.18;87.65;99660.88;5097357;27;45356;-78
2022/01/04 11:27:49;;;;;;;;;9.33;9.33;;;;;10.13;87.94;99670.47;5080523;28;45382;-78
2022/01/04 11:30:33;;;;;;;;;9.00;9.00;;;;;10.18;87.45;99684.78;5081665;28;45252;-79
2022/01/04 11:33:03;;;;;;;;;11.67;11.67;;;;;10.11;87.70;99675.97;5081660;27;45317;-79
2022/01/04 11:35:31;;;;;;;;;12.67;11.00;;;;;10.06;87.73;99675.75;5066855;28;46311;-78
2022/01/04 11:37:58;;;;;;;;;12.00;11.33;;;;;10.12;88.13;99692.75;5073899;27;45438;-78